DKH1234 ZSPD-ZSHC
Flight info
| Callsign | DKH1234 |
|---|---|
| Flight time | 0h 34m |
| Altitude | 7900 |
| Route | AND81D AND B221 SUPAR W505 DSH |
| Aircraft | A333/H-SDE3GHIJ2J3J5M1RVWXY/LB2D1 |
Departure
| Time | 2026-05-06 13:39 |
|---|---|
| Airport | Shanghai Pudong International Airport (ZSPD) |
Arrival
| Time | 2026-05-06 14:13 |
|---|---|
| Airport | Hangzhou Xiaoshan International Airport (ZSHC) |
| Time | Latitude | Longitude | Altitude | Speed | Heading |
|---|---|---|---|---|---|
| 2026-05-06 13:08 | 31.15507 | 121.79691 | 30 ft | 0 kts | 252° |
| 2026-05-06 13:16 | 31.15512 | 121.79709 | 31 ft | 3 kts | 252° |
| 2026-05-06 13:17 | 31.15517 | 121.79747 | 32 ft | 6 kts | 288° |
| 2026-05-06 13:17 | 31.15487 | 121.79765 | 33 ft | 2 kts | 338° |
| 2026-05-06 13:17 | 31.15495 | 121.79762 | 33 ft | 3 kts | 343° |
| 2026-05-06 13:17 | 31.15497 | 121.79761 | 33 ft | 0 kts | 343° |
| 2026-05-06 13:22 | 31.15500 | 121.79760 | 33 ft | 4 kts | 343° |
| 2026-05-06 13:22 | 31.15608 | 121.79720 | 31 ft | 24 kts | 342° |
| 2026-05-06 13:23 | 31.15742 | 121.79667 | 30 ft | 9 kts | 336° |
| 2026-05-06 13:23 | 31.15780 | 121.79608 | 29 ft | 9 kts | 274° |
| 2026-05-06 13:23 | 31.15760 | 121.79528 | 28 ft | 11 kts | 251° |
| 2026-05-06 13:23 | 31.15736 | 121.79438 | 27 ft | 11 kts | 252° |
| 2026-05-06 13:24 | 31.15709 | 121.79341 | 26 ft | 13 kts | 252° |
| 2026-05-06 13:24 | 31.15679 | 121.79230 | 24 ft | 15 kts | 251° |
| 2026-05-06 13:24 | 31.15674 | 121.79213 | 23 ft | 0 kts | 249° |
| 2026-05-06 13:32 | 31.15641 | 121.79104 | 24 ft | 17 kts | 253° |
| 2026-05-06 13:32 | 31.15749 | 121.78959 | 26 ft | 17 kts | 341° |
| 2026-05-06 13:33 | 31.15865 | 121.78916 | 26 ft | 17 kts | 343° |
| 2026-05-06 13:33 | 31.15963 | 121.78878 | 27 ft | 7 kts | 322° |
| 2026-05-06 13:33 | 31.15969 | 121.78839 | 26 ft | 0 kts | 254° |
| 2026-05-06 13:33 | 31.15963 | 121.78818 | 26 ft | 7 kts | 251° |
| 2026-05-06 13:34 | 31.15956 | 121.78792 | 26 ft | 0 kts | 252° |
| 2026-05-06 13:37 | 31.15955 | 121.78788 | 26 ft | 4 kts | 252° |
| 2026-05-06 13:38 | 31.15914 | 121.78685 | 26 ft | 7 kts | 206° |
| 2026-05-06 13:38 | 31.15846 | 121.78702 | 26 ft | 11 kts | 162° |
| 2026-05-06 13:38 | 31.15612 | 121.78790 | 27 ft | 75 kts | 163° |
| 2026-05-06 13:38 | 31.14848 | 121.79081 | 29 ft | 150 kts | 162° |
| 2026-05-06 13:39 | 31.13770 | 121.79462 | 616 ft | 164 kts | 162° |
| 2026-05-06 13:39 | 31.12735 | 121.79852 | 1661 ft | 155 kts | 160° |
| 2026-05-06 13:39 | 31.11680 | 121.80225 | 2237 ft | 168 kts | 169° |
| 2026-05-06 13:39 | 31.10438 | 121.80541 | 2800 ft | 191 kts | 166° |
| 2026-05-06 13:40 | 31.09091 | 121.80971 | 3467 ft | 210 kts | 165° |
| 2026-05-06 13:40 | 31.07623 | 121.81470 | 4153 ft | 230 kts | 164° |
| 2026-05-06 13:40 | 31.06009 | 121.82036 | 4868 ft | 250 kts | 164° |
| 2026-05-06 13:40 | 31.04290 | 121.82645 | 5606 ft | 268 kts | 163° |
| 2026-05-06 13:41 | 31.02483 | 121.83289 | 6595 ft | 276 kts | 163° |
| 2026-05-06 13:41 | 31.00616 | 121.83954 | 7605 ft | 283 kts | 164° |
| 2026-05-06 13:41 | 30.98686 | 121.84603 | 7891 ft | 292 kts | 166° |
| 2026-05-06 13:41 | 30.96753 | 121.85207 | 7834 ft | 286 kts | 171° |
| 2026-05-06 13:42 | 30.94764 | 121.85095 | 7884 ft | 284 kts | 197° |
| 2026-05-06 13:42 | 30.93057 | 121.84007 | 7881 ft | 281 kts | 220° |
| 2026-05-06 13:42 | 30.91569 | 121.82517 | 7888 ft | 282 kts | 220° |
| 2026-05-06 13:42 | 30.90050 | 121.81090 | 7878 ft | 281 kts | 219° |
| 2026-05-06 13:43 | 30.88521 | 121.79671 | 7884 ft | 282 kts | 219° |
| 2026-05-06 13:43 | 30.86968 | 121.78236 | 7889 ft | 282 kts | 219° |
| 2026-05-06 13:43 | 30.85436 | 121.76823 | 7892 ft | 282 kts | 219° |
| 2026-05-06 13:43 | 30.83900 | 121.75407 | 7889 ft | 281 kts | 219° |
| 2026-05-06 13:44 | 30.82365 | 121.73993 | 7890 ft | 282 kts | 219° |
| 2026-05-06 13:44 | 30.80832 | 121.72581 | 7895 ft | 282 kts | 219° |
| 2026-05-06 13:44 | 30.79284 | 121.71156 | 7892 ft | 282 kts | 219° |
| 2026-05-06 13:44 | 30.77750 | 121.69746 | 7887 ft | 281 kts | 219° |
| 2026-05-06 13:45 | 30.76236 | 121.68353 | 7880 ft | 281 kts | 219° |
| 2026-05-06 13:45 | 30.73221 | 121.65582 | 7876 ft | 281 kts | 219° |
| 2026-05-06 13:45 | 30.71697 | 121.64182 | 7877 ft | 280 kts | 219° |
| 2026-05-06 13:46 | 30.70153 | 121.62764 | 7875 ft | 281 kts | 219° |
| 2026-05-06 13:46 | 30.68614 | 121.61352 | 7875 ft | 282 kts | 219° |
| 2026-05-06 13:46 | 30.67082 | 121.59950 | 7872 ft | 281 kts | 219° |
| 2026-05-06 13:46 | 30.65548 | 121.58544 | 7871 ft | 281 kts | 219° |
| 2026-05-06 13:47 | 30.64020 | 121.57144 | 7872 ft | 281 kts | 219° |
| 2026-05-06 13:47 | 30.62486 | 121.55739 | 7872 ft | 281 kts | 219° |
| 2026-05-06 13:47 | 30.60935 | 121.54319 | 7869 ft | 282 kts | 219° |
| 2026-05-06 13:47 | 30.59400 | 121.52913 | 7867 ft | 281 kts | 219° |
| 2026-05-06 13:48 | 30.57868 | 121.51513 | 7870 ft | 281 kts | 219° |
| 2026-05-06 13:48 | 30.56381 | 121.49999 | 7861 ft | 282 kts | 226° |
| 2026-05-06 13:48 | 30.55014 | 121.48381 | 7866 ft | 281 kts | 226° |
| 2026-05-06 13:48 | 30.54099 | 121.47295 | 7864 ft | 281 kts | 226° |
| 2026-05-06 13:49 | 30.52739 | 121.45675 | 7868 ft | 282 kts | 226° |
| 2026-05-06 13:49 | 30.50930 | 121.43516 | 7866 ft | 281 kts | 226° |
| 2026-05-06 13:49 | 30.49573 | 121.41897 | 7864 ft | 281 kts | 226° |
| 2026-05-06 13:49 | 30.48195 | 121.40252 | 7860 ft | 280 kts | 226° |
| 2026-05-06 13:50 | 30.46858 | 121.38654 | 7860 ft | 281 kts | 226° |
| 2026-05-06 13:50 | 30.45491 | 121.37022 | 7853 ft | 280 kts | 226° |
| 2026-05-06 13:50 | 30.44124 | 121.35391 | 7857 ft | 281 kts | 226° |
| 2026-05-06 13:50 | 30.42774 | 121.33780 | 7867 ft | 282 kts | 226° |
| 2026-05-06 13:51 | 30.41414 | 121.32159 | 7863 ft | 281 kts | 226° |
| 2026-05-06 13:51 | 30.40040 | 121.30521 | 7857 ft | 281 kts | 226° |
| 2026-05-06 13:51 | 30.38676 | 121.28896 | 7860 ft | 281 kts | 226° |
| 2026-05-06 13:51 | 30.37313 | 121.27274 | 7859 ft | 281 kts | 226° |
| 2026-05-06 13:52 | 30.35950 | 121.25651 | 7861 ft | 281 kts | 226° |
| 2026-05-06 13:52 | 30.34579 | 121.24020 | 7855 ft | 280 kts | 226° |
| 2026-05-06 13:52 | 30.33214 | 121.22396 | 7854 ft | 280 kts | 226° |
| 2026-05-06 13:52 | 30.31857 | 121.20782 | 7857 ft | 280 kts | 226° |
| 2026-05-06 13:53 | 30.30476 | 121.19143 | 7859 ft | 280 kts | 226° |
| 2026-05-06 13:53 | 30.29076 | 121.17484 | 7862 ft | 280 kts | 226° |
| 2026-05-06 13:53 | 30.27729 | 121.15886 | 7854 ft | 280 kts | 226° |
| 2026-05-06 13:53 | 30.26354 | 121.14254 | 7851 ft | 281 kts | 226° |
| 2026-05-06 13:54 | 30.24972 | 121.12614 | 7851 ft | 281 kts | 226° |
| 2026-05-06 13:54 | 30.23571 | 121.10953 | 7848 ft | 280 kts | 226° |
| 2026-05-06 13:54 | 30.22203 | 121.09331 | 7845 ft | 282 kts | 226° |
| 2026-05-06 13:54 | 30.20802 | 121.07671 | 7849 ft | 280 kts | 226° |
| 2026-05-06 13:55 | 30.19408 | 121.06019 | 7846 ft | 281 kts | 226° |
| 2026-05-06 13:55 | 30.18040 | 121.04400 | 7854 ft | 281 kts | 226° |
| 2026-05-06 13:55 | 30.16658 | 121.02763 | 7854 ft | 280 kts | 226° |
| 2026-05-06 13:55 | 30.15270 | 121.01122 | 7884 ft | 280 kts | 226° |
| 2026-05-06 13:56 | 30.14035 | 120.99319 | 7887 ft | 280 kts | 243° |
| 2026-05-06 13:56 | 30.13523 | 120.97134 | 7905 ft | 280 kts | 263° |
| 2026-05-06 13:56 | 30.13447 | 120.94836 | 7902 ft | 279 kts | 271° |
| 2026-05-06 13:56 | 30.13534 | 120.92595 | 7898 ft | 280 kts | 273° |
| 2026-05-06 13:57 | 30.13656 | 120.90350 | 7897 ft | 279 kts | 273° |
| 2026-05-06 13:57 | 30.13787 | 120.88083 | 7897 ft | 279 kts | 273° |
| 2026-05-06 13:57 | 30.13920 | 120.85840 | 7896 ft | 279 kts | 273° |
| 2026-05-06 13:57 | 30.14052 | 120.83602 | 7895 ft | 279 kts | 273° |
| 2026-05-06 13:58 | 30.14186 | 120.81331 | 7900 ft | 280 kts | 273° |
| 2026-05-06 13:58 | 30.14320 | 120.79057 | 7893 ft | 279 kts | 273° |
| 2026-05-06 13:58 | 30.14451 | 120.76816 | 7888 ft | 280 kts | 273° |
| 2026-05-06 13:58 | 30.14583 | 120.74573 | 7897 ft | 280 kts | 273° |
| 2026-05-06 13:59 | 30.14716 | 120.72293 | 7896 ft | 279 kts | 273° |
| 2026-05-06 13:59 | 30.14846 | 120.70056 | 7894 ft | 280 kts | 274° |
| 2026-05-06 13:59 | 30.14976 | 120.67814 | 7895 ft | 278 kts | 273° |
| 2026-05-06 13:59 | 30.15108 | 120.65538 | 7881 ft | 279 kts | 273° |
| 2026-05-06 14:00 | 30.15239 | 120.63268 | 7888 ft | 277 kts | 273° |
| 2026-05-06 14:00 | 30.15367 | 120.61037 | 7880 ft | 279 kts | 274° |
| 2026-05-06 14:00 | 30.15499 | 120.58734 | 7898 ft | 277 kts | 273° |
| 2026-05-06 14:00 | 30.15627 | 120.56494 | 7901 ft | 279 kts | 274° |
| 2026-05-06 14:01 | 30.15757 | 120.54218 | 7872 ft | 276 kts | 273° |
| 2026-05-06 14:01 | 30.15887 | 120.51919 | 7874 ft | 278 kts | 273° |
| 2026-05-06 14:01 | 30.16017 | 120.49627 | 7893 ft | 279 kts | 273° |
| 2026-05-06 14:01 | 30.16124 | 120.47353 | 7869 ft | 278 kts | 269° |
| 2026-05-06 14:02 | 30.15651 | 120.45191 | 7723 ft | 267 kts | 244° |
| 2026-05-06 14:02 | 30.14795 | 120.43319 | 7459 ft | 256 kts | 243° |
| 2026-05-06 14:02 | 30.13978 | 120.41486 | 7184 ft | 251 kts | 243° |
| 2026-05-06 14:02 | 30.13166 | 120.39661 | 6939 ft | 250 kts | 243° |
| 2026-05-06 14:03 | 30.12354 | 120.37837 | 6722 ft | 250 kts | 243° |
| 2026-05-06 14:03 | 30.11537 | 120.35999 | 6475 ft | 248 kts | 243° |
| 2026-05-06 14:03 | 30.10735 | 120.34197 | 6208 ft | 246 kts | 243° |
| 2026-05-06 14:03 | 30.09925 | 120.32380 | 6012 ft | 249 kts | 243° |
| 2026-05-06 14:04 | 30.09105 | 120.30539 | 5779 ft | 248 kts | 243° |
| 2026-05-06 14:04 | 30.08315 | 120.28767 | 5544 ft | 247 kts | 243° |
| 2026-05-06 14:04 | 30.07513 | 120.26968 | 5289 ft | 246 kts | 242° |
| 2026-05-06 14:04 | 30.06718 | 120.25185 | 5039 ft | 244 kts | 242° |
| 2026-05-06 14:05 | 30.05920 | 120.23398 | 4873 ft | 246 kts | 242° |
| 2026-05-06 14:05 | 30.05313 | 120.21504 | 4892 ft | 247 kts | 263° |
| 2026-05-06 14:05 | 30.05585 | 120.19517 | 4890 ft | 249 kts | 294° |
| 2026-05-06 14:05 | 30.06708 | 120.17971 | 4885 ft | 252 kts | 324° |
| 2026-05-06 14:06 | 30.08288 | 120.17064 | 4900 ft | 252 kts | 333° |
| 2026-05-06 14:06 | 30.09824 | 120.16232 | 4855 ft | 235 kts | 340° |
| 2026-05-06 14:06 | 30.11393 | 120.16161 | 4855 ft | 216 kts | 16° |
| 2026-05-06 14:06 | 30.12609 | 120.16991 | 4925 ft | 189 kts | 43° |
| 2026-05-06 14:07 | 30.13412 | 120.18100 | 4874 ft | 173 kts | 54° |
| 2026-05-06 14:07 | 30.14117 | 120.19212 | 4824 ft | 165 kts | 54° |
| 2026-05-06 14:07 | 30.14772 | 120.20374 | 4544 ft | 184 kts | 60° |
| 2026-05-06 14:07 | 30.15403 | 120.21731 | 3842 ft | 202 kts | 63° |
| 2026-05-06 14:08 | 30.15839 | 120.22715 | 3395 ft | 203 kts | 67° |
| 2026-05-06 14:08 | 30.16562 | 120.24560 | 3079 ft | 176 kts | 67° |
| 2026-05-06 14:08 | 30.17093 | 120.25784 | 2831 ft | 163 kts | 64° |
| 2026-05-06 14:08 | 30.17597 | 120.26892 | 2645 ft | 149 kts | 65° |
| 2026-05-06 14:09 | 30.18073 | 120.27959 | 2438 ft | 142 kts | 65° |
| 2026-05-06 14:09 | 30.18525 | 120.28969 | 2270 ft | 140 kts | 66° |
| 2026-05-06 14:09 | 30.18970 | 120.29966 | 2100 ft | 135 kts | 66° |
| 2026-05-06 14:09 | 30.19399 | 120.30927 | 1917 ft | 131 kts | 66° |
| 2026-05-06 14:10 | 30.19814 | 120.31862 | 1742 ft | 130 kts | 66° |
| 2026-05-06 14:10 | 30.20092 | 120.32491 | 1627 ft | 129 kts | 65° |
| 2026-05-06 14:10 | 30.20650 | 120.33733 | 1390 ft | 129 kts | 65° |
| 2026-05-06 14:10 | 30.20926 | 120.34348 | 1275 ft | 128 kts | 65° |
| 2026-05-06 14:11 | 30.21340 | 120.35279 | 1103 ft | 128 kts | 65° |
| 2026-05-06 14:11 | 30.21896 | 120.36510 | 879 ft | 129 kts | 61° |
| 2026-05-06 14:11 | 30.22330 | 120.37434 | 711 ft | 127 kts | 64° |
| 2026-05-06 14:11 | 30.22747 | 120.38361 | 524 ft | 126 kts | 61° |
| 2026-05-06 14:12 | 30.23152 | 120.39292 | 363 ft | 127 kts | 65° |
| 2026-05-06 14:12 | 30.23542 | 120.40223 | 204 ft | 129 kts | 56° |
| 2026-05-06 14:12 | 30.23947 | 120.41132 | 63 ft | 124 kts | 63° |
| 2026-05-06 14:12 | 30.24299 | 120.41911 | 43 ft | 83 kts | 64° |
| 2026-05-06 14:13 | 30.24467 | 120.42293 | 43 ft | 32 kts | 64° |
| 2026-05-06 14:13 | 30.24549 | 120.42529 | 43 ft | 20 kts | 81° |
| 2026-05-06 14:13 | 30.24557 | 120.42700 | 43 ft | 21 kts | 90° |
| 2026-05-06 14:13 | 30.24557 | 120.42875 | 43 ft | 21 kts | 86° |
| 2026-05-06 14:14 | 30.24602 | 120.43034 | 42 ft | 20 kts | 63° |
| 2026-05-06 14:14 | 30.24668 | 120.43178 | 42 ft | 20 kts | 62° |
| 2026-05-06 14:14 | 30.24631 | 120.43284 | 40 ft | 15 kts | 150° |
| 2026-05-06 14:14 | 30.24535 | 120.43345 | 39 ft | 16 kts | 154° |
| 2026-05-06 14:15 | 30.24434 | 120.43401 | 39 ft | 16 kts | 153° |
| 2026-05-06 14:15 | 30.24331 | 120.43463 | 39 ft | 18 kts | 152° |
| 2026-05-06 14:15 | 30.24242 | 120.43439 | 39 ft | 15 kts | 242° |
| 2026-05-06 14:15 | 30.24196 | 120.43333 | 42 ft | 13 kts | 239° |
| 2026-05-06 14:16 | 30.24150 | 120.43240 | 43 ft | 13 kts | 241° |
| 2026-05-06 14:16 | 30.24136 | 120.43208 | 43 ft | 0 kts | 242° |
| 2026-05-06 14:16 | 30.24134 | 120.43201 | 43 ft | 0 kts | 244° |